createdAt,value
2023-08-04T00:06:05.305Z,54.5
2023-08-04T00:12:11.159Z,54.5
2023-08-04T00:18:17.059Z,54.4
2023-08-04T00:24:23.093Z,54.2
2023-08-04T00:30:28.823Z,54.4
2023-08-04T00:36:34.613Z,54.4
2023-08-04T00:42:40.577Z,54.5
2023-08-04T00:48:45.210Z,54.5
2023-08-04T00:54:51.117Z,54.5
2023-08-04T01:00:56.762Z,54.4
2023-08-04T01:07:02.493Z,54.4
2023-08-04T01:13:07.840Z,54.5
2023-08-04T01:19:13.475Z,54.5
2023-08-04T01:25:19.814Z,54.3
2023-08-04T01:31:25.587Z,54.3
2023-08-04T01:37:31.371Z,54.3
2023-08-04T01:43:37.355Z,54.4
2023-08-04T01:49:42.559Z,54.4
2023-08-04T01:55:48.504Z,54.5
2023-08-04T02:01:54.275Z,54.5
2023-08-04T02:08:00.339Z,54.6
2023-08-04T02:14:06.034Z,54.6
2023-08-04T02:20:11.827Z,54.5
2023-08-04T02:26:17.673Z,54.6
2023-08-04T02:32:23.174Z,54.5
2023-08-04T02:38:29.141Z,54.6
2023-08-04T02:44:34.388Z,54.6
2023-08-04T02:50:40.518Z,54.6
2023-08-04T02:56:46.065Z,54.5
2023-08-04T03:02:52.822Z,54.5
2023-08-04T03:08:58.654Z,54.5
2023-08-04T03:15:04.540Z,54.5
2023-08-04T03:21:09.804Z,54.5
2023-08-04T03:27:15.661Z,54.6
2023-08-04T03:33:21.776Z,54.4
2023-08-04T03:39:27.819Z,54.3
2023-08-04T03:45:33.248Z,54.4
2023-08-04T03:51:39.115Z,54.4
2023-08-04T03:57:44.980Z,54.5
2023-08-04T04:03:51.087Z,54.4
2023-08-04T04:09:56.733Z,54.4
2023-08-04T04:16:02.621Z,54.4
2023-08-04T04:22:08.630Z,54.4
2023-08-04T04:28:14.470Z,54.4
2023-08-04T04:34:19.751Z,54.3
2023-08-04T04:40:25.548Z,54.3
2023-08-04T04:46:31.547Z,54.3
2023-08-04T04:52:37.920Z,54.3
2023-08-04T04:58:44.134Z,54.3
2023-08-04T05:04:51.099Z,54.2
2023-08-04T05:10:58.304Z,54.1
2023-08-04T05:17:05.126Z,54.1
2023-08-04T05:23:13.909Z,54.2
2023-08-04T05:29:19.596Z,54.2
2023-08-04T05:35:25.385Z,54.7
2023-08-04T05:41:31.297Z,54.3
2023-08-04T05:47:37.112Z,54.3
2023-08-04T05:53:43.133Z,54.2
2023-08-04T05:59:49.057Z,54.1
2023-08-04T06:05:54.678Z,54.1
2023-08-04T06:12:00.433Z,54.2
2023-08-04T06:18:06.449Z,54.2
2023-08-04T06:24:12.788Z,54.3
2023-08-04T06:30:18.348Z,54.6
2023-08-04T06:36:24.179Z,56
2023-08-04T06:42:29.170Z,55.4
2023-08-04T06:48:36.099Z,55.1
2023-08-04T06:54:41.678Z,54.6
2023-08-04T07:00:47.490Z,55
2023-08-04T07:06:53.628Z,55
2023-08-04T07:13:00.238Z,55.2
2023-08-04T07:19:06.608Z,55.2
2023-08-04T07:25:13.028Z,55.1
2023-08-04T07:31:19.841Z,55
2023-08-04T07:37:24.843Z,54.8
2023-08-04T07:43:30.779Z,55.3
2023-08-04T07:49:36.645Z,55
2023-08-04T07:55:42.728Z,55
2023-08-04T08:01:49.493Z,54.9
2023-08-04T08:07:55.540Z,54.8
2023-08-04T08:14:00.751Z,54.8
2023-08-04T08:20:06.474Z,54.7
2023-08-04T08:26:11.706Z,54.6
2023-08-04T08:32:17.413Z,54.6
2023-08-04T08:38:23.390Z,54.6
2023-08-04T08:44:29.020Z,54.6
2023-08-04T08:50:35.156Z,54.6
2023-08-04T08:56:40.586Z,54.6
2023-08-04T09:02:46.317Z,54.6
2023-08-04T09:08:52.150Z,54.5
2023-08-04T09:14:58.066Z,54.5
2023-08-04T09:21:03.900Z,54.4
2023-08-04T09:27:09.623Z,54.4
2023-08-04T09:33:15.792Z,54.5
2023-08-04T09:39:21.437Z,54.5
2023-08-04T09:45:27.392Z,54.4
2023-08-04T09:51:33.415Z,54.4
2023-08-04T09:57:39.737Z,54.5
2023-08-04T10:03:45.620Z,54.4
2023-08-04T10:09:51.698Z,54.4
2023-08-04T10:15:57.954Z,54.4
2023-08-04T10:22:04.091Z,54.4
2023-08-04T10:28:09.868Z,54.3
2023-08-04T10:34:15.650Z,54.3
2023-08-04T10:40:21.226Z,54.3
2023-08-04T10:46:27.059Z,54.3
2023-08-04T10:52:36.753Z,54.3
2023-08-04T10:58:42.700Z,54.3
2023-08-04T11:04:48.346Z,54.2
2023-08-04T11:10:54.907Z,54.2
2023-08-04T11:17:01.081Z,54.2
2023-08-04T11:23:07.407Z,54.1
2023-08-04T11:29:13.243Z,54.1
2023-08-04T11:35:19.444Z,54.1
2023-08-04T11:41:25.181Z,54
2023-08-04T11:47:31.577Z,54
2023-08-04T11:53:37.510Z,54
2023-08-04T11:59:43.142Z,54
2023-08-04T12:05:49.147Z,54
2023-08-04T12:11:54.728Z,54
2023-08-04T12:18:01.095Z,53.9
2023-08-04T12:24:07.005Z,53.9
2023-08-04T12:30:13.016Z,53.9
2023-08-04T12:36:18.650Z,53.9
2023-08-04T12:42:24.619Z,53.9
2023-08-04T12:48:30.405Z,53.9
2023-08-04T12:54:36.537Z,53.8
2023-08-04T13:00:42.108Z,53.7
2023-08-04T13:06:47.185Z,54
2023-08-04T13:12:52.854Z,54
2023-08-04T13:18:58.283Z,53.8
2023-08-04T13:25:04.206Z,53.8
2023-08-04T13:31:10.198Z,53.6
2023-08-04T13:37:16.442Z,53.6
2023-08-04T13:43:22.391Z,53.7
2023-08-04T13:49:28.541Z,53.7
2023-08-04T13:55:34.317Z,53.8
2023-08-04T14:01:40.952Z,53.9
2023-08-04T14:07:47.158Z,53.9
2023-08-04T14:13:53.122Z,54
2023-08-04T14:19:59.345Z,54.1
2023-08-04T14:26:05.379Z,54.1
2023-08-04T14:32:11.070Z,54.2
2023-08-04T14:38:16.905Z,54.3
2023-08-04T14:44:22.821Z,54.4
2023-08-04T14:50:28.373Z,54.3
2023-08-04T14:56:34.340Z,54.3
2023-08-04T15:02:40.773Z,54.4
2023-08-04T15:08:46.544Z,54.4
2023-08-04T15:14:51.563Z,54.5
2023-08-04T15:20:57.871Z,54.6
2023-08-04T15:27:03.881Z,54.4
2023-08-04T15:33:09.888Z,54.4
2023-08-04T15:39:18.731Z,54.5
2023-08-04T15:45:25.491Z,54.5
2023-08-04T15:51:30.916Z,54.5
2023-08-04T15:57:36.446Z,54.6
2023-08-04T16:03:42.649Z,54.6
2023-08-04T16:09:48.616Z,54.6
2023-08-04T16:15:54.811Z,54.5
2023-08-04T16:22:00.611Z,54.6
2023-08-04T16:28:06.365Z,54.6
2023-08-04T16:34:12.201Z,54.6
2023-08-04T16:40:20.863Z,54.6
2023-08-04T16:46:27.190Z,54.7
2023-08-04T16:52:32.870Z,54.7
2023-08-04T16:58:39.156Z,54.7
2023-08-04T17:04:45.115Z,54.7
2023-08-04T17:10:50.296Z,54.6
2023-08-04T17:16:55.961Z,54.5
2023-08-04T17:23:01.433Z,54.6
2023-08-04T17:29:07.213Z,54.7
2023-08-04T17:35:13.188Z,55
2023-08-04T17:41:21.434Z,55.1
2023-08-04T17:47:27.239Z,54.6
2023-08-04T17:53:32.780Z,54.7
2023-08-04T17:59:37.433Z,54.7
2023-08-04T18:05:43.587Z,54.7
2023-08-04T18:11:49.715Z,54.5
2023-08-04T18:17:55.556Z,54.9
2023-08-04T18:24:01.707Z,54.8
2023-08-04T18:30:07.327Z,54.7
2023-08-04T18:36:13.435Z,54.7
2023-08-04T18:42:18.996Z,54.7
2023-08-04T18:48:25.226Z,54.7
2023-08-04T18:54:30.454Z,54.7
2023-08-04T19:00:36.570Z,54.8
2023-08-04T19:06:42.191Z,54.8
2023-08-04T19:12:47.699Z,54.8
2023-08-04T19:18:55.939Z,54.7
2023-08-04T19:25:01.736Z,54.8
2023-08-04T19:31:07.134Z,54.7
2023-08-04T19:37:12.954Z,54.8
2023-08-04T19:43:21.298Z,54.8
2023-08-04T19:49:27.301Z,54.8
2023-08-04T19:56:06.995Z,54.8
2023-08-04T20:02:15.496Z,54.7
2023-08-04T20:08:23.654Z,54.7
2023-08-04T20:14:29.279Z,54.8
2023-08-04T20:20:36.835Z,54.8
2023-08-04T20:26:43.643Z,54.8
2023-08-04T20:32:49.893Z,54.8
2023-08-04T20:38:55.400Z,54.8
2023-08-04T20:45:02.607Z,54.9
2023-08-04T20:51:11.048Z,54.9
2023-08-04T20:57:16.494Z,54.8
2023-08-04T21:03:23.647Z,54.9
2023-08-04T21:09:30.452Z,54.6
2023-08-04T21:15:38.079Z,54.8
2023-08-04T21:21:43.678Z,54.7
2023-08-04T21:27:50.019Z,54.8
2023-08-04T21:33:55.992Z,54.8
2023-08-04T21:40:01.675Z,54.8
2023-08-04T21:46:07.346Z,54.8
2023-08-04T21:52:13.359Z,54.8
2023-08-04T21:58:18.922Z,55
2023-08-04T22:04:24.542Z,55.1
2023-08-04T22:10:30.314Z,54.6
2023-08-04T22:16:35.935Z,55.3
2023-08-04T22:22:41.639Z,54.8
2023-08-04T22:28:47.449Z,54.8
2023-08-04T22:34:53.171Z,54.8
2023-08-04T22:40:58.838Z,54.8
2023-08-04T22:47:04.377Z,55
2023-08-04T22:53:10.570Z,54.8
2023-08-04T22:59:16.080Z,54.8
2023-08-04T23:05:21.943Z,54.8
2023-08-04T23:11:27.537Z,54.6
2023-08-04T23:17:33.512Z,54.8
2023-08-04T23:23:39.282Z,54.6
2023-08-04T23:29:45.380Z,54.8
2023-08-04T23:35:51.420Z,54.9
2023-08-04T23:41:57.194Z,54.7
2023-08-04T23:48:02.583Z,54.8
2023-08-04T23:54:08.084Z,54.8
